Time;durP1;ratioP1;P1;durP2;ratioP2;P2;SDS_P1;SDS_P2;PMS_P1;PMS_P2;Temp;Humidity;BMP_temperature;BMP_pressure;BME280_temperature;BME280_humidity;BME280_pressure;Samples;Min_cycle;Max_cycle;Signal;HPM_P1;HPM_P2
2021/09/03 00:00:14;;;;;;;23.85;13.48;;;14.70;99.90;;;;;;4936376;28;37323;-80
2021/09/03 00:02:41;;;;;;;19.88;12.23;;;14.60;99.90;;;;;;4915951;28;40029;-81
2021/09/03 00:05:10;;;;;;;22.77;12.55;;;14.60;99.90;;;;;;4918300;28;37713;-80
2021/09/03 00:07:37;;;;;;;20.55;12.98;;;14.60;99.90;;;;;;4917120;28;38476;-80
2021/09/03 00:10:05;;;;;;;26.27;13.93;;;14.60;99.90;;;;;;4921082;28;39063;-81
2021/09/03 00:12:31;;;;;;;31.50;14.45;;;14.60;99.90;;;;;;4914398;28;47338;-80
2021/09/03 00:14:57;;;;;;;21.63;13.50;;;14.60;99.90;;;;;;4935362;28;38804;-80
2021/09/03 00:17:24;;;;;;;23.48;13.95;;;14.60;99.90;;;;;;4921587;28;37447;-80
2021/09/03 00:19:50;;;;;;;21.80;13.20;;;14.60;99.90;;;;;;4921504;28;37028;-80
2021/09/03 00:22:17;;;;;;;25.17;13.55;;;14.60;99.90;;;;;;4911973;28;39115;-80
2021/09/03 00:24:44;;;;;;;23.02;12.82;;;14.60;99.90;;;;;;4930573;28;39641;-80
2021/09/03 00:27:10;;;;;;;25.63;15.15;;;14.60;99.90;;;;;;4910801;28;36990;-80
2021/09/03 00:29:36;;;;;;;23.65;13.02;;;14.60;99.90;;;;;;4917095;28;37886;-80
2021/09/03 00:32:03;;;;;;;24.45;13.55;;;14.50;99.90;;;;;;4932127;28;39144;-79
2021/09/03 00:34:29;;;;;;;21.60;12.57;;;14.60;99.90;;;;;;4911583;28;39161;-80
2021/09/03 00:36:56;;;;;;;24.58;13.77;;;14.50;99.90;;;;;;4917671;28;36752;-80
2021/09/03 00:39:22;;;;;;;25.77;13.85;;;14.50;99.90;;;;;;4908543;28;37782;-80
2021/09/03 00:41:48;;;;;;;21.60;14.13;;;14.50;99.90;;;;;;4912069;28;41293;-79
2021/09/03 00:44:14;;;;;;;23.73;13.90;;;14.40;99.90;;;;;;4932832;28;39374;-80
2021/09/03 00:46:40;;;;;;;19.75;13.23;;;14.40;99.90;;;;;;4913743;28;37663;-80
2021/09/03 00:49:06;;;;;;;32.50;15.55;;;14.40;99.90;;;;;;4916768;28;38629;-80
2021/09/03 00:51:32;;;;;;;29.27;15.50;;;14.40;99.90;;;;;;4910177;28;38050;-80
2021/09/03 00:53:59;;;;;;;24.70;14.43;;;14.40;99.90;;;;;;4915118;28;37199;-80
2021/09/03 00:56:25;;;;;;;21.85;14.35;;;14.40;99.90;;;;;;4934184;28;38576;-81
2021/09/03 00:58:51;;;;;;;28.50;15.20;;;14.40;99.90;;;;;;4914908;28;36587;-80
2021/09/03 01:01:20;;;;;;;26.02;14.35;;;14.30;99.90;;;;;;4918783;28;39597;-80
2021/09/03 01:03:47;;;;;;;27.40;15.48;;;14.30;99.90;;;;;;4937546;28;39308;-81
2021/09/03 01:06:13;;;;;;;31.08;16.55;;;14.40;99.90;;;;;;4933083;28;38160;-80
2021/09/03 01:08:40;;;;;;;27.80;16.48;;;14.30;99.90;;;;;;4914126;28;36611;-80
2021/09/03 01:11:06;;;;;;;28.48;16.45;;;14.30;99.90;;;;;;4932043;28;40348;-80
2021/09/03 01:13:32;;;;;;;26.10;16.15;;;14.20;99.90;;;;;;4937388;28;39824;-80
2021/09/03 01:15:59;;;;;;;32.17;16.58;;;14.20;99.90;;;;;;4918994;28;39188;-81
2021/09/03 01:18:25;;;;;;;32.55;16.67;;;14.20;99.90;;;;;;4920022;28;36280;-80
2021/09/03 01:20:51;;;;;;;32.78;17.45;;;14.20;99.90;;;;;;4914661;28;38953;-79
2021/09/03 01:23:18;;;;;;;27.65;16.42;;;14.20;99.90;;;;;;4932696;28;37796;-80
2021/09/03 01:25:44;;;;;;;28.27;15.98;;;14.20;99.90;;;;;;4933427;28;38305;-80
2021/09/03 01:28:10;;;;;;;36.20;17.98;;;14.20;99.90;;;;;;4913299;28;38311;-81
2021/09/03 01:30:36;;;;;;;27.27;16.00;;;14.20;99.90;;;;;;4913475;28;37783;-80
2021/09/03 01:33:03;;;;;;;25.02;14.85;;;14.10;99.90;;;;;;4915554;28;38870;-80
2021/09/03 01:35:29;;;;;;;28.50;16.25;;;14.10;99.90;;;;;;4933815;28;38248;-80
2021/09/03 01:37:55;;;;;;;25.00;15.18;;;14.10;99.90;;;;;;4916811;28;38817;-80
2021/09/03 01:40:21;;;;;;;27.42;15.60;;;14.00;99.90;;;;;;4916185;28;40491;-80
2021/09/03 01:42:47;;;;;;;23.75;15.57;;;14.00;99.90;;;;;;4918413;28;39214;-79
2021/09/03 01:45:13;;;;;;;31.45;16.60;;;14.00;99.90;;;;;;4933886;28;37772;-79
2021/09/03 01:47:39;;;;;;;27.35;15.57;;;14.00;99.90;;;;;;4915405;28;37536;-79
2021/09/03 01:50:06;;;;;;;27.63;16.45;;;14.00;99.90;;;;;;4913985;28;39997;-79
2021/09/03 01:52:33;;;;;;;27.45;16.80;;;14.00;99.90;;;;;;4917821;28;38360;-80
2021/09/03 01:54:59;;;;;;;27.75;16.40;;;14.00;99.90;;;;;;4916669;28;37021;-79
2021/09/03 01:57:25;;;;;;;30.42;16.17;;;13.90;99.90;;;;;;4931029;28;36077;-80
2021/09/03 01:59:51;;;;;;;34.00;17.73;;;13.90;99.90;;;;;;4938623;28;39850;-80
2021/09/03 02:02:17;;;;;;;28.45;15.68;;;13.90;99.90;;;;;;4935683;28;38726;-80
2021/09/03 02:04:43;;;;;;;30.23;17.15;;;13.90;99.90;;;;;;4931513;28;38269;-80
2021/09/03 02:07:09;;;;;;;29.05;15.60;;;13.90;99.90;;;;;;4911247;28;37431;-80
2021/09/03 02:09:35;;;;;;;29.48;16.88;;;13.90;99.90;;;;;;4917413;28;39600;-80
2021/09/03 02:12:01;;;;;;;29.27;16.80;;;13.90;99.90;;;;;;4931225;28;39523;-80
2021/09/03 02:14:27;;;;;;;31.95;17.60;;;13.90;99.90;;;;;;4935030;28;47192;-80
2021/09/03 02:16:53;;;;;;;27.67;17.55;;;13.90;99.90;;;;;;4914882;28;37476;-80
2021/09/03 02:19:20;;;;;;;29.85;17.20;;;13.90;99.90;;;;;;4914842;28;39428;-80
2021/09/03 02:21:46;;;;;;;37.30;18.38;;;13.80;99.90;;;;;;4919015;28;37059;-79
2021/09/03 02:24:12;;;;;;;34.25;18.13;;;13.80;99.90;;;;;;4934841;28;36343;-80
2021/09/03 02:26:38;;;;;;;26.35;16.92;;;13.80;99.90;;;;;;4915281;28;39382;-79
2021/09/03 02:29:04;;;;;;;32.03;16.85;;;13.80;99.90;;;;;;4933558;28;38370;-79
2021/09/03 02:31:30;;;;;;;31.00;18.58;;;13.80;99.90;;;;;;4916381;28;39946;-79
2021/09/03 02:33:56;;;;;;;32.03;17.52;;;13.80;99.90;;;;;;4932323;28;37926;-79
2021/09/03 02:36:22;;;;;;;29.15;18.75;;;13.80;99.90;;;;;;4933672;28;38404;-79
2021/09/03 02:38:48;;;;;;;30.48;17.15;;;13.80;99.90;;;;;;4913876;28;39579;-79
2021/09/03 02:41:15;;;;;;;29.95;19.50;;;13.80;99.90;;;;;;4913540;28;38484;-79
2021/09/03 02:43:41;;;;;;;27.08;18.17;;;13.70;99.90;;;;;;4913481;28;39425;-79
2021/09/03 02:46:07;;;;;;;34.53;18.88;;;13.70;99.90;;;;;;4933355;28;37217;-79
2021/09/03 02:48:33;;;;;;;33.67;20.35;;;13.80;99.90;;;;;;4931801;28;38755;-79
2021/09/03 02:50:59;;;;;;;40.65;20.88;;;13.70;99.90;;;;;;4934398;28;39480;-79
2021/09/03 02:53:25;;;;;;;34.72;19.58;;;13.80;99.90;;;;;;4918588;28;40124;-79
2021/09/03 02:55:51;;;;;;;35.58;20.10;;;13.70;99.90;;;;;;4936527;28;38173;-78
2021/09/03 02:58:18;;;;;;;36.67;20.63;;;13.70;99.90;;;;;;4929088;28;38523;-79
2021/09/03 03:00:44;;;;;;;34.50;18.90;;;13.70;99.90;;;;;;4917011;28;37620;-79
2021/09/03 03:03:10;;;;;;;31.45;19.90;;;13.70;99.90;;;;;;4937072;28;39650;-79
2021/09/03 03:05:36;;;;;;;32.03;19.05;;;13.70;99.90;;;;;;4929603;28;37432;-79
2021/09/03 03:08:02;;;;;;;30.30;19.02;;;13.70;99.90;;;;;;4932314;28;39880;-78
2021/09/03 03:10:28;;;;;;;37.78;20.88;;;13.70;99.90;;;;;;4935084;28;38942;-80
2021/09/03 03:12:55;;;;;;;30.58;20.85;;;13.70;99.90;;;;;;4934166;28;37675;-80
2021/09/03 03:15:24;;;;;;;36.70;20.13;;;13.60;99.90;;;;;;4915648;28;37820;-80
2021/09/03 03:17:51;;;;;;;33.20;20.83;;;13.60;99.90;;;;;;4915020;28;40059;-80
2021/09/03 03:20:18;;;;;;;34.00;20.17;;;13.60;99.90;;;;;;4931080;28;38363;-79
2021/09/03 03:22:45;;;;;;;27.75;19.50;;;13.60;99.90;;;;;;4934351;28;37904;-80
2021/09/03 03:25:11;;;;;;;33.17;19.95;;;13.60;99.90;;;;;;4937567;28;37461;-79
2021/09/03 03:27:37;;;;;;;36.88;21.23;;;13.60;99.90;;;;;;4938193;28;38686;-80
2021/09/03 03:30:04;;;;;;;36.88;20.05;;;13.60;99.90;;;;;;4938165;28;38075;-80
2021/09/03 03:32:30;;;;;;;34.70;20.65;;;13.50;99.90;;;;;;4916489;28;47258;-80
2021/09/03 03:34:56;;;;;;;28.92;18.83;;;13.50;99.90;;;;;;4923387;28;37732;-80
2021/09/03 03:37:23;;;;;;;28.10;19.05;;;13.50;99.90;;;;;;4917752;28;37559;-80
2021/09/03 03:39:49;;;;;;;33.97;21.23;;;13.50;99.90;;;;;;4918639;28;40800;-81
2021/09/03 03:42:15;;;;;;;31.15;19.05;;;13.50;99.90;;;;;;4935309;28;39145;-80
2021/09/03 03:44:41;;;;;;;36.45;20.52;;;13.50;99.90;;;;;;4915688;28;39134;-80
2021/09/03 03:47:07;;;;;;;32.22;19.67;;;13.50;99.90;;;;;;4931662;28;37000;-80
2021/09/03 03:49:34;;;;;;;35.13;19.58;;;13.50;99.90;;;;;;4934318;28;38818;-80
2021/09/03 03:52:00;;;;;;;33.33;21.20;;;13.50;99.90;;;;;;4915196;28;38733;-79
2021/09/03 03:54:26;;;;;;;36.08;20.17;;;13.50;99.90;;;;;;4913756;28;38472;-80
2021/09/03 03:56:52;;;;;;;34.22;21.55;;;13.50;99.90;;;;;;4918813;28;37798;-80
2021/09/03 03:59:19;;;;;;;32.20;20.88;;;13.50;99.90;;;;;;4912857;28;38854;-80
2021/09/03 04:01:45;;;;;;;37.63;22.13;;;13.50;99.90;;;;;;4914811;28;39792;-79
2021/09/03 04:04:11;;;;;;;41.17;22.73;;;13.50;99.90;;;;;;4933402;28;37494;-79
2021/09/03 04:06:37;;;;;;;30.20;20.50;;;13.50;99.90;;;;;;4912273;28;39278;-80
2021/09/03 04:09:03;;;;;;;38.90;20.70;;;13.50;99.90;;;;;;4932889;28;38733;-79
2021/09/03 04:11:29;;;;;;;36.03;20.45;;;13.40;99.90;;;;;;4931963;28;38290;-80
2021/09/03 04:13:55;;;;;;;37.80;20.65;;;13.40;99.90;;;;;;4930752;28;37266;-80
2021/09/03 04:16:21;;;;;;;34.90;20.48;;;13.40;99.90;;;;;;4929195;28;38777;-80
2021/09/03 04:18:47;;;;;;;37.55;20.98;;;13.40;99.90;;;;;;4914570;28;39069;-80
2021/09/03 04:21:13;;;;;;;37.13;20.45;;;13.40;99.90;;;;;;4933695;28;37971;-80
2021/09/03 04:23:39;;;;;;;36.92;21.48;;;13.40;99.90;;;;;;4921528;28;39005;-79
2021/09/03 04:26:05;;;;;;;32.22;20.45;;;13.40;99.90;;;;;;4913317;28;40354;-79
2021/09/03 04:28:32;;;;;;;34.88;18.88;;;13.30;99.90;;;;;;4930898;28;38262;-79
2021/09/03 04:30:59;;;;;;;43.35;22.13;;;13.30;99.90;;;;;;4933062;28;37979;-80
2021/09/03 04:33:25;;;;;;;39.42;20.38;;;13.30;99.90;;;;;;4915727;28;36999;-79
2021/09/03 04:35:51;;;;;;;40.88;23.08;;;13.30;99.90;;;;;;4933206;28;39581;-79
2021/09/03 04:38:17;;;;;;;41.08;22.42;;;13.40;99.90;;;;;;4932862;28;39280;-80
2021/09/03 04:40:44;;;;;;;38.80;21.00;;;13.40;99.90;;;;;;4919182;28;38999;-79
2021/09/03 04:43:10;;;;;;;40.75;21.80;;;13.30;99.90;;;;;;4914234;28;37332;-79
2021/09/03 04:45:36;;;;;;;42.78;23.73;;;13.30;99.90;;;;;;4934355;28;38824;-79
2021/09/03 04:48:03;;;;;;;35.97;21.08;;;13.30;99.90;;;;;;4910857;28;37333;-79
2021/09/03 04:50:30;;;;;;;42.15;22.23;;;13.30;99.90;;;;;;4936895;28;40373;-80
2021/09/03 04:52:56;;;;;;;30.15;20.35;;;13.30;99.90;;;;;;4913233;28;39147;-81
2021/09/03 04:55:22;;;;;;;35.33;21.27;;;13.30;99.90;;;;;;4914425;28;37905;-80
2021/09/03 04:57:48;;;;;;;40.20;22.08;;;13.30;99.90;;;;;;4928144;28;36853;-80
2021/09/03 05:00:18;;;;;;;35.05;20.33;;;13.30;99.90;;;;;;4931133;28;38157;-80
2021/09/03 05:02:44;;;;;;;36.70;21.50;;;13.30;99.90;;;;;;4933344;28;37557;-80
2021/09/03 05:05:11;;;;;;;35.38;20.77;;;13.30;99.90;;;;;;4909625;28;36595;-80
2021/09/03 05:07:37;;;;;;;36.70;22.35;;;13.30;99.90;;;;;;4924809;28;38432;-80
2021/09/03 05:10:06;;;;;;;44.47;24.88;;;13.30;99.90;;;;;;4912036;28;39231;-80
2021/09/03 05:12:32;;;;;;;43.33;22.75;;;13.30;99.90;;;;;;4927018;28;46348;-80
2021/09/03 05:15:00;;;;;;;46.45;24.83;;;13.40;99.90;;;;;;4912357;28;40122;-81
2021/09/03 05:17:26;;;;;;;38.47;23.45;;;13.40;99.90;;;;;;4914476;28;39090;-81
2021/09/03 05:19:52;;;;;;;49.10;28.05;;;13.40;99.90;;;;;;4914807;28;37304;-79
2021/09/03 05:22:18;;;;;;;44.92;25.65;;;13.40;99.90;;;;;;4938982;28;37301;-79
2021/09/03 05:24:44;;;;;;;45.67;25.98;;;13.50;99.90;;;;;;4937600;28;38951;-79
2021/09/03 05:27:10;;;;;;;43.47;24.75;;;13.50;99.90;;;;;;4919749;28;39537;-79
2021/09/03 05:29:37;;;;;;;41.70;25.85;;;13.50;99.90;;;;;;4941357;28;37838;-78
2021/09/03 05:32:03;;;;;;;46.70;26.52;;;13.50;99.90;;;;;;4925334;28;38373;-79
2021/09/03 05:34:29;;;;;;;41.70;24.50;;;13.50;99.90;;;;;;4928277;28;40890;-79
2021/09/03 05:36:55;;;;;;;48.05;26.10;;;13.50;99.90;;;;;;4942702;28;38401;-79
2021/09/03 05:39:21;;;;;;;49.08;26.08;;;13.60;99.90;;;;;;4946203;28;39711;-79
2021/09/03 05:41:47;;;;;;;46.55;26.17;;;13.60;99.90;;;;;;4923564;28;38363;-79
2021/09/03 05:44:13;;;;;;;49.30;26.45;;;13.60;99.90;;;;;;4942581;28;39403;-79
2021/09/03 05:46:39;;;;;;;44.00;25.58;;;13.70;99.90;;;;;;4948200;28;38299;-79
2021/09/03 05:49:06;;;;;;;45.35;24.90;;;13.70;99.90;;;;;;4934351;28;38564;-80
2021/09/03 05:51:32;;;;;;;43.88;25.45;;;13.80;99.90;;;;;;4930823;28;38542;-80
2021/09/03 05:53:58;;;;;;;52.10;27.35;;;13.80;99.90;;;;;;4947381;28;39848;-80
2021/09/03 05:56:24;;;;;;;54.90;26.77;;;13.90;99.90;;;;;;4926214;28;39658;-80
2021/09/03 05:58:50;;;;;;;45.17;25.83;;;13.90;99.90;;;;;;4947448;28;37866;-80
2021/09/03 06:01:16;;;;;;;50.15;26.27;;;13.90;99.90;;;;;;4923386;28;38077;-81
2021/09/03 06:03:42;;;;;;;45.75;25.85;;;13.90;99.90;;;;;;4924088;28;39784;-80
2021/09/03 06:06:08;;;;;;;47.22;27.35;;;14.00;99.90;;;;;;4924811;28;39240;-80
2021/09/03 06:08:34;;;;;;;44.95;25.73;;;14.00;99.90;;;;;;4938517;28;38420;-79
2021/09/03 06:11:00;;;;;;;45.67;25.83;;;14.10;99.90;;;;;;4920505;28;36353;-79
2021/09/03 06:13:26;;;;;;;45.28;25.90;;;14.10;99.90;;;;;;4929712;28;40560;-80
2021/09/03 06:15:52;;;;;;;43.53;27.83;;;14.20;99.90;;;;;;4924117;28;38825;-80
2021/09/03 06:18:18;;;;;;;38.55;24.73;;;14.20;99.90;;;;;;4938096;28;37003;-80
2021/09/03 06:20:45;;;;;;;40.17;25.00;;;14.20;99.90;;;;;;4947106;28;37763;-80
2021/09/03 06:23:11;;;;;;;41.53;26.67;;;14.30;99.90;;;;;;4949277;28;38960;-79
2021/09/03 06:25:37;;;;;;;40.33;25.25;;;14.30;99.90;;;;;;4927099;28;39459;-79
2021/09/03 06:28:03;;;;;;;45.97;25.95;;;14.40;99.90;;;;;;4950087;28;38864;-79
2021/09/03 06:30:29;;;;;;;41.47;25.80;;;14.40;99.90;;;;;;4950510;28;37857;-79
2021/09/03 06:32:55;;;;;;;42.60;26.33;;;14.50;99.90;;;;;;4923362;28;39780;-79
2021/09/03 06:35:21;;;;;;;44.35;26.15;;;14.50;99.90;;;;;;4949239;28;38601;-78
2021/09/03 06:37:47;;;;;;;45.47;25.63;;;14.60;99.90;;;;;;4931386;28;39750;-78
2021/09/03 06:40:13;;;;;;;38.88;24.80;;;14.60;99.90;;;;;;4945561;28;37442;-79
2021/09/03 06:42:39;;;;;;;35.05;24.58;;;14.70;99.90;;;;;;4943795;28;38822;-79
2021/09/03 06:45:06;;;;;;;38.42;25.80;;;14.70;99.90;;;;;;4942012;28;38145;-77
2021/09/03 06:47:32;;;;;;;39.22;23.65;;;14.80;99.90;;;;;;4940577;28;39115;-78
2021/09/03 06:49:58;;;;;;;37.05;24.55;;;14.80;99.90;;;;;;4949157;28;37395;-78
2021/09/03 06:52:30;;;;;;;38.85;23.38;;;14.80;99.90;;;;;;4946254;28;39386;-79
2021/09/03 06:54:57;;;;;;;41.47;24.48;;;14.90;99.90;;;;;;4921767;28;39640;-78
2021/09/03 06:57:23;;;;;;;37.55;24.40;;;15.00;99.90;;;;;;4946015;28;39006;-78
2021/09/03 06:59:50;;;;;;;35.92;24.05;;;15.00;99.90;;;;;;4931129;28;37308;-80
2021/09/03 07:02:16;;;;;;;37.90;23.45;;;15.10;99.90;;;;;;4946926;28;38737;-80
2021/09/03 07:04:42;;;;;;;39.17;23.83;;;15.10;99.90;;;;;;4926236;28;39230;-79
2021/09/03 07:07:08;;;;;;;41.10;23.40;;;15.20;99.90;;;;;;4926815;28;38435;-80
2021/09/03 07:09:34;;;;;;;40.90;24.98;;;15.30;99.90;;;;;;4925450;28;38225;-80
2021/09/03 07:12:01;;;;;;;36.47;23.55;;;15.30;99.90;;;;;;4930914;28;40569;-80
2021/09/03 07:14:27;;;;;;;33.75;22.00;;;15.40;99.90;;;;;;4930579;28;47198;-80
2021/09/03 07:16:53;;;;;;;40.42;23.95;;;15.50;99.90;;;;;;4947093;28;38099;-80
2021/09/03 07:19:19;;;;;;;35.58;22.65;;;15.60;99.90;;;;;;4937823;28;38482;-80
2021/09/03 07:21:46;;;;;;;37.95;21.17;;;15.70;99.90;;;;;;4919298;28;41388;-79
2021/09/03 07:24:12;;;;;;;37.97;22.77;;;15.70;99.90;;;;;;4947684;28;40158;-80
2021/09/03 07:26:39;;;;;;;29.48;20.70;;;15.80;99.90;;;;;;4935201;28;37768;-79
2021/09/03 07:29:05;;;;;;;33.17;21.10;;;15.90;99.90;;;;;;4924131;28;38182;-79
2021/09/03 07:31:32;;;;;;;26.58;19.75;;;16.10;99.90;;;;;;4948410;28;38579;-79
2021/09/03 07:33:58;;;;;;;32.45;20.02;;;16.40;99.90;;;;;;4930602;28;39108;-80
2021/09/03 07:36:24;;;;;;;34.50;21.00;;;16.60;99.90;;;;;;4930003;28;37057;-79
2021/09/03 07:38:50;;;;;;;29.90;18.70;;;16.80;99.90;;;;;;4945063;28;38368;-79
2021/09/03 07:41:17;;;;;;;27.52;18.63;;;17.00;99.90;;;;;;4940112;28;38917;-79
2021/09/03 07:43:43;;;;;;;30.40;20.10;;;17.20;99.90;;;;;;4939687;28;38394;-79
2021/09/03 07:46:10;;;;;;;28.38;17.05;;;17.40;99.90;;;;;;4928152;28;39691;-78
2021/09/03 07:48:36;;;;;;;30.70;18.00;;;17.60;99.90;;;;;;4924954;28;37854;-79
2021/09/03 07:51:02;;;;;;;23.33;17.13;;;17.90;99.90;;;;;;4947171;28;38770;-78
2021/09/03 07:53:28;;;;;;;25.50;16.73;;;18.00;99.90;;;;;;4949001;28;38474;-79
2021/09/03 07:55:56;;;;;;;25.45;16.40;;;18.30;99.90;;;;;;4946971;28;37941;-79
2021/09/03 07:58:22;;;;;;;22.83;16.55;;;18.20;99.90;;;;;;4924405;28;36188;-79
2021/09/03 08:00:48;;;;;;;24.40;14.60;;;18.30;99.90;;;;;;4949346;28;38678;-79
2021/09/03 08:03:14;;;;;;;25.08;15.50;;;18.40;99.90;;;;;;4945084;28;39125;-79
2021/09/03 08:05:40;;;;;;;20.67;14.98;;;18.50;99.90;;;;;;4943105;28;39681;-78
2021/09/03 08:08:07;;;;;;;25.40;16.08;;;18.60;99.90;;;;;;4939037;28;39607;-79
2021/09/03 08:10:34;;;;;;;22.85;14.75;;;18.70;99.90;;;;;;4945255;28;39588;-79
2021/09/03 08:13:02;;;;;;;20.20;14.48;;;18.90;99.90;;;;;;4926693;28;38814;-79
2021/09/03 08:15:30;;;;;;;21.00;13.73;;;19.10;99.90;;;;;;4943244;28;48673;-79
2021/09/03 08:17:56;;;;;;;19.38;13.85;;;19.10;99.90;;;;;;4921016;28;38460;-78
2021/09/03 08:20:23;;;;;;;20.98;13.88;;;19.20;99.90;;;;;;4932522;28;40730;-79
2021/09/03 08:22:51;;;;;;;23.80;14.07;;;19.10;99.90;;;;;;4947300;28;38913;-79
2021/09/03 08:25:19;;;;;;;23.90;13.63;;;19.20;99.90;;;;;;4944357;28;37950;-79
2021/09/03 08:27:47;;;;;;;23.05;14.23;;;19.30;99.90;;;;;;4926103;28;38026;-79
2021/09/03 08:30:14;;;;;;;20.48;12.82;;;19.60;99.90;;;;;;4941656;28;39878;-78
2021/09/03 08:32:40;;;;;;;20.80;12.60;;;19.80;99.90;;;;;;4938594;28;38912;-79
2021/09/03 08:35:06;;;;;;;19.10;14.07;;;20.00;99.90;;;;;;4917759;28;39197;-79
2021/09/03 08:37:32;;;;;;;20.73;12.52;;;20.20;99.90;;;;;;4943744;28;37258;-79
2021/09/03 08:39:59;;;;;;;18.35;13.13;;;20.30;99.90;;;;;;4944032;28;38756;-79
2021/09/03 08:42:28;;;;;;;19.70;12.70;;;20.40;99.90;;;;;;4927451;28;38718;-78
2021/09/03 08:44:56;;;;;;;20.13;12.88;;;20.40;99.90;;;;;;4945651;28;38830;-79
2021/09/03 08:47:22;;;;;;;17.35;12.20;;;20.50;99.90;;;;;;4947062;28;38270;-78
2021/09/03 08:49:50;;;;;;;23.20;12.35;;;20.50;99.90;;;;;;4947593;28;38906;-79
2021/09/03 08:52:18;;;;;;;20.17;12.35;;;20.50;99.90;;;;;;4944581;28;38436;-79
2021/09/03 08:54:45;;;;;;;20.00;12.52;;;20.60;99.90;;;;;;4928787;28;38795;-79
2021/09/03 08:57:14;;;;;;;19.05;12.32;;;20.70;99.90;;;;;;4947568;28;38263;-79
2021/09/03 08:59:41;;;;;;;20.50;12.13;;;20.60;99.90;;;;;;4946514;28;40460;-79
2021/09/03 09:02:15;;;;;;;18.08;12.02;;;20.90;99.90;;;;;;4948218;28;38056;-80
2021/09/03 09:04:44;;;;;;;18.10;11.90;;;20.90;99.90;;;;;;4929463;28;38916;-80
2021/09/03 09:07:10;;;;;;;19.33;11.57;;;20.90;99.90;;;;;;4925342;28;38102;-81
2021/09/03 09:09:41;;;;;;;17.40;11.60;;;20.70;99.90;;;;;;4929681;28;38212;-81
2021/09/03 09:12:12;;;;;;;17.35;10.70;;;20.80;99.90;;;;;;4930273;28;39751;-81
2021/09/03 09:15:02;;;;;;;16.77;11.52;;;21.10;99.90;;;;;;4930323;28;39871;-80
2021/09/03 09:17:29;;;;;;;16.75;11.52;;;21.10;99.90;;;;;;4942753;28;37367;-81
2021/09/03 09:19:55;;;;;;;16.88;11.07;;;21.10;99.90;;;;;;4924580;28;39230;-80
2021/09/03 09:22:21;;;;;;;17.42;12.05;;;21.00;99.90;;;;;;4947945;28;38648;-80
2021/09/03 09:24:47;;;;;;;20.05;12.35;;;21.10;99.90;;;;;;4948403;28;39009;-81
2021/09/03 09:27:24;;;;;;;18.52;11.43;;;21.20;99.90;;;;;;4924677;28;38482;-80
2021/09/03 09:29:51;;;;;;;18.58;11.70;;;21.40;99.90;;;;;;4946875;28;39976;-80
2021/09/03 09:32:17;;;;;;;17.00;11.45;;;21.50;99.90;;;;;;4926373;28;38577;-81
2021/09/03 09:34:44;;;;;;;13.02;10.68;;;21.60;99.90;;;;;;4946673;28;37868;-80
2021/09/03 09:37:15;;;;;;;16.55;11.85;;;21.80;99.90;;;;;;4922131;28;37028;-80
2021/09/03 09:39:47;;;;;;;16.33;11.70;;;21.80;99.90;;;;;;4925675;28;39934;-82
2021/09/03 09:42:28;;;;;;;17.27;11.20;;;21.90;99.90;;;;;;4936391;28;39169;-81
2021/09/03 09:45:08;;;;;;;16.63;11.63;;;22.00;99.90;;;;;;4934301;28;38592;-81
2021/09/03 09:47:35;;;;;;;18.05;11.60;;;22.00;99.90;;;;;;4930964;28;47355;-81
2021/09/03 09:50:31;;;;;;;17.65;10.75;;;21.90;99.90;;;;;;4937514;28;39343;-80
2021/09/03 09:53:08;;;;;;;15.73;10.05;;;22.10;99.90;;;;;;4952363;28;47522;-82
2021/09/03 09:55:36;;;;;;;18.08;9.10;;;22.30;99.90;;;;;;4949797;28;49528;-81
2021/09/03 09:58:05;;;;;;;13.38;9.82;;;22.30;99.90;;;;;;4937776;28;37544;-81
2021/09/03 10:00:35;;;;;;;14.60;9.82;;;22.40;99.90;;;;;;4948885;28;40383;-81
2021/09/03 10:03:05;;;;;;;13.40;9.90;;;22.50;99.90;;;;;;4933959;28;39910;-77
2021/09/03 10:05:32;;;;;;;21.52;10.32;;;22.60;99.90;;;;;;4930646;28;38274;-81
2021/09/03 10:07:59;;;;;;;18.30;10.45;;;22.40;99.90;;;;;;4930017;28;39217;-82
2021/09/03 10:10:25;;;;;;;18.60;11.07;;;22.40;99.90;;;;;;4949980;28;40090;-81
2021/09/03 10:12:51;;;;;;;15.65;10.52;;;22.50;99.90;;;;;;4950369;28;38540;-81
2021/09/03 10:15:18;;;;;;;14.02;9.85;;;22.80;99.90;;;;;;4919931;28;41712;-81
2021/09/03 10:17:45;;;;;;;14.00;9.77;;;23.10;99.90;;;;;;4925280;29;36248;-81
2021/09/03 10:20:12;;;;;;;16.40;10.20;;;23.00;99.90;;;;;;4931341;28;37128;-81
2021/09/03 10:22:43;;;;;;;12.77;9.27;;;23.00;99.90;;;;;;4932504;28;38831;-80
2021/09/03 10:25:10;;;;;;;16.88;10.30;;;23.00;99.90;;;;;;4951524;28;38265;-80
2021/09/03 10:27:37;;;;;;;14.13;10.82;;;23.10;99.90;;;;;;4951081;28;37642;-81
2021/09/03 10:30:18;;;;;;;16.05;10.10;;;23.20;99.90;;;;;;4950380;28;39603;-81
2021/09/03 10:32:44;;;;;;;15.45;10.25;;;23.20;99.90;;;;;;4942110;28;48697;-80
2021/09/03 10:35:21;;;;;;;13.55;9.40;;;23.40;99.90;;;;;;4947609;28;38384;-80
2021/09/03 10:37:49;;;;;;;14.68;9.80;;;23.50;99.90;;;;;;4954845;28;37998;-81
2021/09/03 10:40:38;;;;;;;14.88;9.93;;;23.60;99.90;;;;;;4935381;28;37889;-81
2021/09/03 10:43:04;;;;;;;15.15;9.60;;;23.60;99.90;;;;;;4927978;28;37801;-81
2021/09/03 10:45:39;;;;;;;17.55;10.20;;;23.70;99.90;;;;;;4953641;28;37932;-82
2021/09/03 10:48:19;;;;;;;13.52;10.10;;;23.50;99.90;;;;;;4932592;28;40089;-81
2021/09/03 10:50:55;;;;;;;16.45;11.43;;;23.50;99.90;;;;;;4938388;28;37788;-81
2021/09/03 10:53:27;;;;;;;16.55;10.32;;;23.40;99.90;;;;;;4951887;28;37958;-80
2021/09/03 10:56:21;;;;;;;16.67;10.55;;;23.40;99.90;;;;;;4950127;28;37805;-81
2021/09/03 10:58:51;;;;;;;16.48;10.70;;;23.70;99.90;;;;;;4945796;28;48544;-81
2021/09/03 11:01:26;;;;;;;22.88;12.20;;;23.70;99.90;;;;;;4936870;28;39112;-80
2021/09/03 11:04:04;;;;;;;13.82;10.40;;;23.50;99.90;;;;;;4932937;28;37963;-81
2021/09/03 11:06:37;;;;;;;20.00;11.68;;;23.70;99.90;;;;;;4946154;28;48562;-81
2021/09/03 11:09:20;;;;;;;18.92;11.10;;;23.50;99.90;;;;;;4942391;28;37058;-81
2021/09/03 11:11:55;;;;;;;16.60;10.30;;;23.50;99.90;;;;;;4930427;28;37826;-82
2021/09/03 11:14:22;;;;;;;18.35;11.02;;;23.80;99.90;;;;;;4949879;28;38712;-80
2021/09/03 11:16:55;;;;;;;18.77;10.45;;;23.80;99.90;;;;;;4950400;28;38965;-80
2021/09/03 11:19:25;;;;;;;15.48;10.75;;;23.80;99.90;;;;;;4930201;28;39060;-80
2021/09/03 11:22:00;;;;;;;18.65;10.35;;;23.80;99.90;;;;;;4934031;28;37905;-80
2021/09/03 11:24:32;;;;;;;17.85;10.25;;;23.70;99.90;;;;;;4950713;28;48669;-81
2021/09/03 11:27:01;;;;;;;17.38;10.05;;;23.70;99.90;;;;;;4945725;28;38456;-80
2021/09/03 11:29:30;;;;;;;21.33;11.25;;;23.80;99.90;;;;;;4942626;28;48892;-80
2021/09/03 11:32:11;;;;;;;18.10;12.35;;;24.10;99.90;;;;;;4949227;28;39899;-79
2021/09/03 11:34:51;;;;;;;15.43;10.45;;;23.90;99.90;;;;;;4943610;28;48996;-80
2021/09/03 11:37:45;;;;;;;17.42;10.55;;;24.20;99.90;;;;;;4930138;28;38022;-80
2021/09/03 11:40:13;;;;;;;15.23;10.48;;;24.50;99.90;;;;;;4931585;28;37372;-79
2021/09/03 11:42:49;;;;;;;17.48;10.52;;;24.50;99.90;;;;;;4947036;28;38734;-80
2021/09/03 11:45:24;;;;;;;14.25;11.38;;;24.70;99.90;;;;;;4928043;28;38325;-80
2021/09/03 11:47:53;;;;;;;12.50;9.82;;;24.70;99.90;;;;;;4946026;28;38204;-80
2021/09/03 11:50:25;;;;;;;16.27;10.10;;;24.90;99.90;;;;;;4925436;28;37769;-80
2021/09/03 11:52:52;;;;;;;16.48;10.32;;;25.00;99.90;;;;;;4929195;28;39688;-80
2021/09/03 11:55:19;;;;;;;13.73;9.32;;;25.10;99.90;;;;;;4947823;28;38326;-80
2021/09/03 11:57:56;;;;;;;12.07;9.52;;;25.10;99.90;;;;;;4919906;28;40002;-80
2021/09/03 12:00:25;;;;;;;17.92;10.95;;;25.10;99.90;;;;;;4947061;28;37215;-79
2021/09/03 12:02:53;;;;;;;17.85;10.48;;;25.00;99.90;;;;;;4932720;28;39779;-80
2021/09/03 12:05:19;;;;;;;16.80;10.82;;;25.20;99.90;;;;;;4945512;28;39115;-80
2021/09/03 12:08:38;;;;;;;15.20;9.80;;;25.00;99.90;;;;;;4943999;28;38801;-80
2021/09/03 12:11:19;;;;;;;12.63;9.48;;;24.90;99.90;;;;;;4892379;28;48726;-79
2021/09/03 12:13:51;;;;;;;15.73;10.33;;;24.80;99.90;;;;;;4945759;28;38643;-80
2021/09/03 12:16:20;;;;;;;13.80;9.23;;;25.00;99.90;;;;;;4945243;28;38780;-80
2021/09/03 12:18:48;;;;;;;18.38;11.65;;;25.20;99.90;;;;;;4927053;28;39193;-79
2021/09/03 12:21:20;;;;;;;15.32;10.95;;;25.20;99.90;;;;;;4929344;28;37956;-79
2021/09/03 12:23:59;;;;;;;17.25;10.63;;;25.00;99.90;;;;;;4948917;28;39874;-79
2021/09/03 12:26:47;;;;;;;14.98;10.35;;;25.00;99.90;;;;;;4943204;28;38533;-79
2021/09/03 12:29:13;;;;;;;16.77;11.93;;;25.00;99.90;;;;;;4947689;28;37938;-80
2021/09/03 12:31:55;;;;;;;12.57;9.93;;;25.00;99.90;;;;;;4947797;28;38462;-79